createdAt,value
2017-11-11T00:00:41.030Z,94.98
2017-11-11T00:01:40.693Z,95.84
2017-11-11T00:02:40.999Z,95.84
2017-11-11T00:03:40.995Z,95.55
2017-11-11T00:04:40.980Z,95.84
2017-11-11T00:05:40.967Z,95.65
2017-11-11T00:06:40.956Z,95.55
2017-11-11T00:07:40.948Z,95.46
2017-11-11T00:08:40.934Z,95.75
2017-11-11T00:09:40.923Z,95.55
2017-11-11T00:10:40.907Z,95.75
2017-11-11T00:11:40.899Z,94.89
2017-11-11T00:12:40.886Z,94.98
2017-11-11T00:13:40.874Z,95.84
2017-11-11T00:14:40.866Z,95.55
2017-11-11T00:15:40.848Z,95.84
2017-11-11T00:16:40.840Z,95.17
2017-11-11T00:17:40.504Z,95.75
2017-11-11T00:18:40.814Z,95.75
2017-11-11T00:19:40.806Z,95.65
2017-11-11T00:20:40.794Z,94.98
2017-11-11T00:21:40.786Z,94.98
2017-11-11T00:22:40.770Z,95.27
2017-11-11T00:23:40.760Z,95.84
2017-11-11T00:24:40.747Z,95.65
2017-11-11T00:25:40.738Z,95.94
2017-11-11T00:26:40.721Z,95.27
2017-11-11T00:27:40.713Z,94.7
2017-11-11T00:28:40.705Z,95.17
2017-11-11T00:29:40.693Z,95.75
2017-11-11T00:30:40.681Z,95.75
2017-11-11T00:31:40.667Z,95.55
2017-11-11T00:32:40.343Z,95.75
2017-11-11T00:33:40.642Z,95.75
2017-11-11T00:34:40.631Z,95.08
2017-11-11T00:35:40.619Z,95.08
2017-11-11T00:36:40.604Z,94.89
2017-11-11T00:37:40.625Z,95.08
2017-11-11T00:38:40.585Z,94.89
2017-11-11T00:39:40.592Z,95.08
2017-11-11T00:40:40.561Z,94.89
2017-11-11T00:41:40.548Z,94.98
2017-11-11T00:42:40.539Z,94.89
2017-11-11T00:43:40.525Z,95.36
2017-11-11T00:44:40.513Z,95.08
2017-11-11T00:45:40.503Z,95.17
2017-11-11T00:46:40.171Z,94.89
2017-11-11T00:47:40.484Z,94.79
2017-11-11T00:48:40.466Z,94.7
2017-11-11T00:49:40.131Z,95.17
2017-11-11T00:50:40.442Z,95.17
2017-11-11T00:51:40.433Z,95.08
2017-11-11T00:52:40.421Z,94.79
2017-11-11T00:53:40.457Z,95.08
2017-11-11T00:54:40.397Z,95.08
2017-11-11T00:55:40.395Z,95.08
2017-11-11T00:56:40.377Z,95.36
2017-11-11T00:57:40.365Z,94.98
2017-11-11T00:58:40.350Z,94.7
2017-11-11T00:59:40.343Z,94.98
2017-11-11T01:00:40.332Z,95.17
2017-11-11T01:01:40.319Z,94.79
2017-11-11T01:02:40.306Z,94.42
2017-11-11T01:03:40.293Z,95.17
2017-11-11T01:04:40.283Z,94.98
2017-11-11T01:05:39.955Z,94.79
2017-11-11T01:06:40.264Z,94.42
2017-11-11T01:07:40.247Z,94.79
2017-11-11T01:08:40.237Z,94.79
2017-11-11T01:09:40.223Z,95.17
2017-11-11T01:10:40.220Z,94.79
2017-11-11T01:11:40.204Z,94.89
2017-11-11T01:12:40.204Z,94.98
2017-11-11T01:13:40.181Z,94.89
2017-11-11T01:14:40.177Z,95.55
2017-11-11T01:15:40.158Z,94.89
2017-11-11T01:16:40.145Z,95.08
2017-11-11T01:17:40.136Z,95.08
2017-11-11T01:18:40.121Z,95.08
2017-11-11T01:19:40.111Z,94.51
2017-11-11T01:20:40.096Z,95.17
2017-11-11T01:21:39.764Z,94.79
2017-11-11T01:22:40.104Z,94.79
2017-11-11T01:23:40.063Z,94.7
2017-11-11T01:24:40.054Z,95.08
2017-11-11T01:25:40.040Z,94.98
2017-11-11T01:26:40.030Z,94.98
2017-11-11T01:27:40.015Z,95.46
2017-11-11T01:28:40.009Z,94.89
2017-11-11T01:29:39.998Z,95.17
2017-11-11T01:30:39.656Z,94.79
2017-11-11T01:31:39.971Z,94.32
2017-11-11T01:32:39.960Z,94.7
2017-11-11T01:33:39.947Z,94.98
2017-11-11T01:34:39.942Z,95.17
2017-11-11T01:35:39.936Z,95.08
2017-11-11T01:36:39.915Z,95.27
2017-11-11T01:37:39.902Z,94.51
2017-11-11T01:38:39.894Z,94.51
2017-11-11T01:39:39.885Z,94.7
2017-11-11T01:40:39.880Z,94.98
2017-11-11T01:41:39.861Z,94.98
2017-11-11T01:42:39.855Z,94.79
2017-11-11T01:43:39.839Z,94.98
2017-11-11T01:44:39.846Z,94.6
2017-11-11T01:45:39.484Z,94.6
2017-11-11T01:46:39.813Z,94.89
2017-11-11T01:47:39.791Z,94.79
2017-11-11T01:48:39.824Z,95.17
2017-11-11T01:49:39.767Z,94.79
2017-11-11T01:50:39.753Z,94.51
2017-11-11T01:51:39.752Z,94.79
2017-11-11T01:52:39.731Z,94.7
2017-11-11T01:53:39.728Z,94.6
2017-11-11T01:54:39.383Z,94.7
2017-11-11T01:55:39.697Z,94.6
2017-11-11T01:56:39.685Z,94.6
2017-11-11T01:57:39.682Z,94.42
2017-11-11T01:58:39.660Z,95.17
2017-11-11T01:59:39.649Z,94.98
2017-11-11T02:00:39.638Z,94.32
2017-11-11T02:01:39.634Z,94.6
2017-11-11T02:02:39.618Z,94.32
2017-11-11T02:03:39.603Z,94.79
2017-11-11T02:04:39.589Z,94.7
2017-11-11T02:05:39.581Z,94.7
2017-11-11T02:06:39.566Z,94.98
2017-11-11T02:07:39.558Z,94.89
2017-11-11T02:08:39.552Z,94.98
2017-11-11T02:09:39.535Z,94.98
2017-11-11T02:10:39.530Z,95.17
2017-11-11T02:11:39.510Z,94.79
2017-11-11T02:12:39.517Z,94.7
2017-11-11T02:13:39.487Z,94.98
2017-11-11T02:14:39.477Z,94.98
2017-11-11T02:15:39.465Z,95.17
2017-11-11T02:16:39.453Z,95.08
2017-11-11T02:17:39.443Z,95.17
2017-11-11T02:18:39.434Z,94.7
2017-11-11T02:19:39.420Z,94.98
2017-11-11T02:20:39.411Z,95.08
2017-11-11T02:21:39.654Z,94.32
2017-11-11T02:22:39.403Z,94.42
2017-11-11T02:23:39.048Z,94.51
2017-11-11T02:24:39.372Z,94.6
2017-11-11T02:25:39.352Z,94.23
2017-11-11T02:26:39.337Z,94.23
2017-11-11T02:27:39.327Z,94.6
2017-11-11T02:28:39.322Z,94.98
2017-11-11T02:29:39.306Z,95.17
2017-11-11T02:30:39.293Z,94.98
2017-11-11T02:31:39.281Z,94.79
2017-11-11T02:32:39.274Z,94.98
2017-11-11T02:33:39.257Z,94.42
2017-11-11T02:34:39.247Z,94.6
2017-11-11T02:35:39.239Z,95.08
2017-11-11T02:36:39.229Z,94.79
2017-11-11T02:37:39.215Z,94.7
2017-11-11T02:38:38.874Z,95.17
2017-11-11T02:39:39.193Z,95.08
2017-11-11T02:40:39.188Z,94.7
2017-11-11T02:41:38.840Z,94.23
2017-11-11T02:42:39.164Z,94.7
2017-11-11T02:43:39.140Z,94.6
2017-11-11T02:44:39.135Z,94.46
2017-11-11T02:45:39.125Z,94.23
2017-11-11T02:46:39.110Z,94.6
2017-11-11T02:47:39.104Z,94.42
2017-11-11T02:48:39.101Z,94.13
2017-11-11T02:49:39.075Z,94.79
2017-11-11T02:50:39.080Z,94.7
2017-11-11T02:51:38.743Z,94.89
2017-11-11T02:52:39.043Z,94.7
2017-11-11T02:53:39.028Z,94.32
2017-11-11T02:54:39.018Z,94.51
2017-11-11T02:55:39.005Z,94.79
2017-11-11T02:56:38.993Z,94.79
2017-11-11T02:57:38.985Z,94.6
2017-11-11T02:58:38.983Z,94.6
2017-11-11T02:59:38.957Z,94.6
2017-11-11T03:00:38.959Z,94.7
2017-11-11T03:01:38.942Z,94.79
2017-11-11T03:02:38.930Z,94.7
2017-11-11T03:03:38.910Z,94.42
2017-11-11T03:04:38.941Z,94.23
2017-11-11T03:05:38.892Z,94.32
2017-11-11T03:06:38.887Z,94.51
2017-11-11T03:07:38.866Z,94.42
2017-11-11T03:08:38.857Z,94.42
2017-11-11T03:09:38.856Z,94.23
2017-11-11T03:10:38.856Z,94.7
2017-11-11T03:11:38.823Z,94.51
2017-11-11T03:12:38.817Z,94.13
2017-11-11T03:13:38.794Z,94.7
2017-11-11T03:14:38.787Z,94.23
2017-11-11T03:15:38.777Z,94.23
2017-11-11T03:16:38.764Z,94.13
2017-11-11T03:17:38.768Z,94.42
2017-11-11T03:18:38.738Z,94.23
2017-11-11T03:19:38.728Z,94.6
2017-11-11T03:20:38.715Z,94.6
2017-11-11T03:21:38.702Z,93.65
2017-11-11T03:22:38.699Z,93.65
2017-11-11T03:23:38.681Z,94.7
2017-11-11T03:24:38.685Z,93.94
2017-11-11T03:25:38.659Z,93.75
2017-11-11T03:26:38.645Z,93.75
2017-11-11T03:27:38.638Z,93.75
2017-11-11T03:28:38.299Z,94.51
2017-11-11T03:29:38.613Z,93.65
2017-11-11T03:30:38.652Z,93.94
2017-11-11T03:31:38.593Z,93.94
2017-11-11T03:32:38.578Z,93.94
2017-11-11T03:33:38.571Z,93.94
2017-11-11T03:34:38.553Z,93.84
2017-11-11T03:35:38.544Z,93.75
2017-11-11T03:36:38.535Z,93.84
2017-11-11T03:37:38.196Z,94.03
2017-11-11T03:38:38.510Z,94.23
2017-11-11T03:39:38.495Z,93.94
2017-11-11T03:40:38.521Z,93.94
2017-11-11T03:41:38.476Z,93.56
2017-11-11T03:42:38.464Z,93.94
2017-11-11T03:43:38.451Z,94.13
2017-11-11T03:44:38.441Z,93.94
2017-11-11T03:45:38.436Z,93.75
2017-11-11T03:46:38.430Z,93.94
2017-11-11T03:47:38.406Z,94.13
2017-11-11T03:48:38.395Z,93.75
2017-11-11T03:49:38.381Z,93.65
2017-11-11T03:50:38.372Z,94.32
2017-11-11T03:51:38.359Z,94.42
2017-11-11T03:52:38.353Z,93.65
2017-11-11T03:53:38.341Z,93.84
2017-11-11T03:54:38.322Z,93.94
2017-11-11T03:55:38.309Z,93.94
2017-11-11T03:56:38.300Z,94.23
2017-11-11T03:57:38.289Z,94.13
2017-11-11T03:58:38.276Z,93.65
2017-11-11T03:59:38.267Z,93.75
2017-11-11T04:00:38.254Z,93.65
2017-11-11T04:01:38.243Z,93.75
2017-11-11T04:02:38.230Z,94.7
2017-11-11T04:03:38.225Z,94.23
2017-11-11T04:04:38.207Z,94.42
2017-11-11T04:05:38.196Z,93.65
2017-11-11T04:06:38.184Z,93.94
2017-11-11T04:07:38.173Z,94.32
2017-11-11T04:08:38.163Z,93.84
2017-11-11T04:09:38.152Z,94.42
2017-11-11T04:10:38.138Z,94.32
2017-11-11T04:11:38.125Z,94.32
2017-11-11T04:12:38.115Z,94.42
2017-11-11T04:13:38.107Z,94.42
2017-11-11T04:14:38.091Z,94.23
2017-11-11T04:15:38.090Z,94.51
2017-11-11T04:16:38.071Z,94.6
2017-11-11T04:17:38.060Z,94.6
2017-11-11T04:18:38.048Z,94.6
2017-11-11T04:19:38.032Z,94.42
2017-11-11T04:20:38.022Z,94.23
2017-11-11T04:21:38.041Z,94.23
2017-11-11T04:22:37.998Z,94.7
2017-11-11T04:23:37.989Z,94.7
2017-11-11T04:24:37.975Z,94.6
2017-11-11T04:25:37.974Z,95.08
2017-11-11T04:26:37.953Z,95.08
2017-11-11T04:27:37.944Z,95.08
2017-11-11T04:28:37.931Z,95.08
2017-11-11T04:29:37.917Z,95.17
2017-11-11T04:30:37.903Z,94.98
2017-11-11T04:31:37.896Z,94.98
2017-11-11T04:32:37.559Z,94.89
2017-11-11T04:33:37.868Z,94.98
2017-11-11T04:34:37.862Z,94.98
2017-11-11T04:35:37.846Z,94.89
2017-11-11T04:36:37.832Z,94.89
2017-11-11T04:37:37.497Z,94.89
2017-11-11T04:38:37.814Z,94.98
2017-11-11T04:39:37.806Z,94.98
2017-11-11T04:40:37.792Z,95.94
2017-11-11T04:41:37.773Z,94.98
2017-11-11T04:42:37.765Z,94.89
2017-11-11T04:43:37.755Z,95.08
2017-11-11T04:44:37.740Z,94.89
2017-11-11T04:45:37.732Z,95.36
2017-11-11T04:46:37.734Z,94.89
2017-11-11T04:47:37.707Z,94.89
2017-11-11T04:48:37.693Z,94.98
2017-11-11T04:49:37.692Z,94.98
2017-11-11T04:50:37.668Z,95.08
2017-11-11T04:51:37.659Z,95.08
2017-11-11T04:52:37.650Z,94.98
2017-11-11T04:53:37.638Z,94.89
2017-11-11T04:54:37.628Z,94.89
2017-11-11T04:55:37.609Z,95.08
2017-11-11T04:56:37.601Z,94.79
2017-11-11T04:57:37.590Z,95.65
2017-11-11T04:58:37.577Z,95.75
2017-11-11T04:59:37.567Z,95.84
2017-11-11T05:00:37.554Z,95.65
2017-11-11T05:01:37.541Z,95.75
2017-11-11T05:02:37.540Z,95.65
2017-11-11T05:03:37.516Z,95.84
2017-11-11T05:04:37.508Z,95.75
2017-11-11T05:05:37.504Z,94.98
2017-11-11T05:06:37.490Z,95.08
2017-11-11T05:07:37.475Z,94.98
2017-11-11T05:08:37.459Z,95.08
2017-11-11T05:09:37.446Z,94.89
2017-11-11T05:10:37.442Z,95.08
2017-11-11T05:11:37.101Z,95.17
2017-11-11T05:12:37.414Z,95.17
2017-11-11T05:13:37.401Z,94.89
2017-11-11T05:14:37.388Z,94.7
2017-11-11T05:15:37.390Z,95.08
2017-11-11T05:16:37.044Z,94.79
2017-11-11T05:17:37.358Z,94.98
2017-11-11T05:18:37.018Z,94.79
2017-11-11T05:19:37.334Z,95.17
2017-11-11T05:20:36.993Z,94.7
2017-11-11T05:21:37.306Z,94.32
2017-11-11T05:22:37.298Z,94.42
2017-11-11T05:23:37.285Z,94.51
2017-11-11T05:24:36.949Z,94.79
2017-11-11T05:25:37.304Z,94.79
2017-11-11T05:26:37.249Z,94.23
2017-11-11T05:27:37.248Z,94.23
2017-11-11T05:28:37.226Z,94.23
2017-11-11T05:29:37.220Z,94.6
2017-11-11T05:30:37.206Z,94.23
2017-11-11T05:31:36.870Z,94.51
2017-11-11T05:32:37.185Z,94.42
2017-11-11T05:33:36.854Z,94.74
2017-11-11T05:34:37.160Z,93.84
2017-11-11T05:35:37.148Z,93.84
2017-11-11T05:36:37.135Z,93.99
2017-11-11T05:37:37.123Z,94.08
2017-11-11T05:38:37.112Z,93.84
2017-11-11T05:39:37.102Z,93.99
2017-11-11T05:40:37.091Z,94.32
2017-11-11T05:41:37.087Z,94.32
2017-11-11T05:42:37.066Z,93.65
2017-11-11T05:43:37.072Z,93.84
2017-11-11T05:44:37.049Z,93.94
2017-11-11T05:45:37.041Z,93.94
2017-11-11T05:46:37.035Z,93.84
2017-11-11T05:47:37.021Z,93.75
2017-11-11T05:48:36.998Z,94.03
2017-11-11T05:49:36.989Z,93.56
2017-11-11T05:50:36.989Z,94.27
2017-11-11T05:51:36.963Z,93.84
2017-11-11T05:52:36.951Z,94.79
2017-11-11T05:53:36.944Z,94.23
2017-11-11T05:54:36.931Z,93.75
2017-11-11T05:55:36.919Z,93.84
2017-11-11T05:56:36.922Z,93.65
2017-11-11T05:57:36.904Z,93.75
2017-11-11T05:58:36.883Z,93.84
2017-11-11T05:59:36.874Z,93.27
2017-11-11T06:00:36.859Z,93.65
2017-11-11T06:01:36.849Z,93.84
2017-11-11T06:02:36.867Z,93.65
2017-11-11T06:03:36.833Z,93.94
2017-11-11T06:04:36.814Z,93.65
2017-11-11T06:05:36.806Z,93.46
2017-11-11T06:06:36.802Z,93.56
2017-11-11T06:07:36.458Z,93.7
2017-11-11T06:08:36.771Z,93.46
2017-11-11T06:09:36.760Z,93.75
2017-11-11T06:10:36.753Z,94.03
2017-11-11T06:11:36.735Z,94.03
2017-11-11T06:12:36.725Z,93.94
2017-11-11T06:13:36.394Z,93.75
2017-11-11T06:14:36.701Z,93.84
2017-11-11T06:15:36.696Z,93.84
2017-11-11T06:16:36.678Z,94.03
2017-11-11T06:17:36.668Z,93.65
2017-11-11T06:18:36.661Z,93.99
2017-11-11T06:19:36.646Z,93.65
2017-11-11T06:20:36.637Z,93.84
2017-11-11T06:21:36.626Z,93.94
2017-11-11T06:22:36.607Z,94.03
2017-11-11T06:23:36.606Z,94.03
2017-11-11T06:24:36.588Z,94.23
2017-11-11T06:25:36.575Z,94.23
2017-11-11T06:26:36.566Z,93.84
2017-11-11T06:27:36.553Z,94.18
2017-11-11T06:28:36.547Z,94.08
2017-11-11T06:29:36.528Z,93.89
2017-11-11T06:30:36.518Z,93.7
2017-11-11T06:31:36.529Z,93.79
2017-11-11T06:32:36.496Z,93.6
2017-11-11T06:33:36.160Z,93.79
2017-11-11T06:34:36.475Z,93.89
2017-11-11T06:35:36.460Z,93.94
2017-11-11T06:36:36.454Z,93.7
2017-11-11T06:37:36.113Z,93.99
2017-11-11T06:38:36.103Z,93.89
2017-11-11T06:39:36.419Z,93.79
2017-11-11T06:40:36.407Z,94.56
2017-11-11T06:41:36.397Z,94.23
2017-11-11T06:42:36.387Z,95.08
2017-11-11T06:43:36.374Z,95.08
2017-11-11T06:44:36.360Z,94.98
2017-11-11T06:45:36.360Z,95.65
2017-11-11T06:46:36.340Z,95.55
2017-11-11T06:47:36.325Z,95.41
2017-11-11T06:48:36.320Z,95.55
2017-11-11T06:49:36.312Z,95.55
2017-11-11T06:50:36.295Z,95.94
2017-11-11T06:51:36.279Z,95.55
2017-11-11T06:52:36.269Z,95.84
2017-11-11T06:53:36.268Z,95.79
2017-11-11T06:54:36.245Z,95.94
2017-11-11T06:55:36.236Z,95.94
2017-11-11T06:56:36.225Z,95.46
2017-11-11T06:57:36.212Z,95.55
2017-11-11T06:58:36.201Z,95.65
2017-11-11T06:59:36.202Z,95.75
2017-11-11T07:00:36.178Z,95.94
2017-11-11T07:01:36.167Z,95.75
2017-11-11T07:02:36.157Z,95.84
2017-11-11T07:03:36.144Z,96.41
2017-11-11T07:04:36.133Z,95.94
2017-11-11T07:05:36.158Z,96.12
2017-11-11T07:06:36.111Z,96.08
2017-11-11T07:07:36.103Z,96.69
2017-11-11T07:08:36.094Z,96.31
2017-11-11T07:09:36.077Z,96.45
2017-11-11T07:10:36.070Z,96.31
2017-11-11T07:11:36.070Z,96.12
2017-11-11T07:12:36.049Z,96.69
2017-11-11T07:13:36.032Z,96.98
2017-11-11T07:14:36.020Z,97.36
2017-11-11T07:15:36.009Z,97.36
2017-11-11T07:16:35.996Z,97.83
2017-11-11T07:17:35.991Z,97.55
2017-11-11T07:18:35.979Z,97.27
2017-11-11T07:19:35.967Z,97.45
2017-11-11T07:20:35.951Z,97.17
2017-11-11T07:21:35.940Z,97.45
2017-11-11T07:22:35.931Z,97.55
2017-11-11T07:23:35.919Z,97.17
2017-11-11T07:24:35.915Z,97.69
2017-11-11T07:25:35.897Z,98.07
2017-11-11T07:26:35.881Z,97.64
2017-11-11T07:27:35.547Z,97.45
2017-11-11T07:28:35.863Z,97.45
2017-11-11T07:29:35.847Z,97.64
2017-11-11T07:30:35.839Z,97.64
2017-11-11T07:31:35.834Z,97.64
2017-11-11T07:32:35.812Z,97.92
2017-11-11T07:33:35.811Z,97.92
2017-11-11T07:34:35.466Z,97.97
2017-11-11T07:35:35.800Z,97.64
2017-11-11T07:36:35.783Z,97.5
2017-11-11T07:37:35.772Z,96.84
2017-11-11T07:38:35.427Z,96.84
2017-11-11T07:39:35.739Z,96.26
2017-11-11T07:40:35.723Z,96.55
2017-11-11T07:41:35.717Z,96.93
2017-11-11T07:42:35.699Z,96.84
2017-11-11T07:43:35.727Z,96.93
2017-11-11T07:44:35.676Z,96.84
2017-11-11T07:45:35.670Z,96.93
2017-11-11T07:46:35.653Z,96.17
2017-11-11T07:47:35.654Z,96.26
2017-11-11T07:48:35.635Z,95.79
2017-11-11T07:49:35.633Z,95.6
2017-11-11T07:50:35.611Z,95.7
2017-11-11T07:51:35.598Z,94.93
2017-11-11T07:52:35.601Z,95.03
2017-11-11T07:53:35.585Z,95.03
2017-11-11T07:54:35.567Z,94.89
2017-11-11T07:55:35.556Z,95.08
2017-11-11T07:56:35.557Z,94.51
2017-11-11T07:57:35.537Z,94.79
2017-11-11T07:58:35.532Z,94.98
2017-11-11T07:59:35.514Z,94.13
2017-11-11T08:00:35.503Z,94.03
2017-11-11T08:01:35.493Z,93.7
2017-11-11T08:02:35.479Z,93.13
2017-11-11T08:03:35.468Z,92.75
2017-11-11T08:04:35.137Z,92.56
2017-11-11T08:05:35.124Z,92.79
2017-11-11T08:06:35.437Z,92.32
2017-11-11T08:07:35.430Z,92.32
2017-11-11T08:08:35.427Z,91.84
2017-11-11T08:09:35.409Z,91.27
2017-11-11T08:10:35.410Z,91.65
2017-11-11T08:11:35.396Z,91.84
2017-11-11T08:12:35.379Z,91.37
2017-11-11T08:13:35.375Z,91.65
2017-11-11T08:14:35.364Z,91.17
2017-11-11T08:15:35.352Z,90.8
2017-11-11T08:16:35.018Z,90.84
2017-11-11T08:17:35.329Z,90.94
2017-11-11T08:18:35.323Z,91.37
2017-11-11T08:19:35.310Z,90.89
2017-11-11T08:20:35.306Z,90.89
2017-11-11T08:21:35.296Z,91.27
2017-11-11T08:22:35.289Z,91.17
2017-11-11T08:23:35.276Z,90.89
2017-11-11T08:24:35.264Z,91.37
2017-11-11T08:25:35.255Z,91.46
2017-11-11T08:26:35.247Z,91.37
2017-11-11T08:27:34.916Z,90.89
2017-11-11T08:28:35.225Z,90.89
2017-11-11T08:29:35.222Z,91.65
2017-11-11T08:30:35.206Z,91.46
2017-11-11T08:31:35.194Z,91.27
2017-11-11T08:32:35.201Z,91.46
2017-11-11T08:33:35.179Z,91.56
2017-11-11T08:34:35.169Z,91.75
2017-11-11T08:35:34.831Z,91.65
2017-11-11T08:36:35.147Z,91.65
2017-11-11T08:37:35.141Z,91.65
2017-11-11T08:38:35.183Z,91.17
2017-11-11T08:39:35.117Z,91.37
2017-11-11T08:40:35.108Z,92.03
2017-11-11T08:41:35.105Z,91.56
2017-11-11T08:42:35.090Z,91.08
2017-11-11T08:43:35.103Z,91.46
2017-11-11T08:44:35.069Z,91.75
2017-11-11T08:45:35.067Z,91.65
2017-11-11T08:46:34.728Z,91.08
2017-11-11T08:47:35.041Z,91.37
2017-11-11T08:48:35.031Z,90.89
2017-11-11T08:49:35.037Z,91.46
2017-11-11T08:50:35.018Z,90.99
2017-11-11T08:51:35.001Z,90.7
2017-11-11T08:52:34.993Z,90.8
2017-11-11T08:53:34.980Z,90.42
2017-11-11T08:54:34.969Z,90.89
2017-11-11T08:55:34.963Z,90.8
2017-11-11T08:56:34.951Z,90.7
2017-11-11T08:57:34.944Z,90.99
2017-11-11T08:58:34.936Z,90.8
2017-11-11T08:59:34.927Z,90.89
2017-11-11T09:00:34.912Z,90.51
2017-11-11T09:01:34.581Z,90.84
2017-11-11T09:02:34.571Z,90.56
2017-11-11T09:03:34.882Z,90.32
2017-11-11T09:04:34.874Z,91.03
2017-11-11T09:05:34.873Z,90.75
2017-11-11T09:06:34.855Z,90.27
2017-11-11T09:07:34.851Z,89.98
2017-11-11T09:08:34.841Z,89.61
2017-11-11T09:09:34.833Z,89.7
2017-11-11T09:10:34.823Z,89.22
2017-11-11T09:11:34.825Z,88.93
2017-11-11T09:12:34.805Z,89.13
2017-11-11T09:13:34.795Z,89.41
2017-11-11T09:14:34.800Z,88.89
2017-11-11T09:15:34.780Z,88.84
2017-11-11T09:16:34.777Z,88.84
2017-11-11T09:17:34.756Z,89.51
2017-11-11T09:18:34.745Z,89.22
2017-11-11T09:19:34.763Z,89.89
2017-11-11T09:20:34.730Z,90.27
2017-11-11T09:21:34.721Z,89.79
2017-11-11T09:22:34.717Z,89.51
2017-11-11T09:23:34.700Z,89.22
2017-11-11T09:24:34.695Z,89.03
2017-11-11T09:25:34.687Z,88.6
2017-11-11T09:26:34.682Z,88.7
2017-11-11T09:27:34.674Z,88.79
2017-11-11T09:28:34.660Z,88.6
2017-11-11T09:29:34.663Z,88.7
2017-11-11T09:30:34.645Z,88.51
2017-11-11T09:31:34.632Z,87.93
2017-11-11T09:32:34.622Z,87.74
2017-11-11T09:33:34.615Z,88.31
2017-11-11T09:34:34.601Z,87.84
2017-11-11T09:35:34.278Z,87.74
2017-11-11T09:36:34.262Z,87.93
2017-11-11T09:37:34.576Z,87.84
2017-11-11T09:38:34.580Z,87.74
2017-11-11T09:39:34.562Z,88.12
2017-11-11T09:40:34.570Z,87.93
2017-11-11T09:41:34.540Z,87.84
2017-11-11T09:42:34.539Z,87.84
2017-11-11T09:43:34.522Z,87.93
2017-11-11T09:44:34.531Z,87.93
2017-11-11T09:45:34.508Z,87.65
2017-11-11T09:46:34.499Z,88.12
2017-11-11T09:47:34.497Z,87.84
2017-11-11T09:48:34.157Z,87.84
2017-11-11T09:49:34.475Z,87.74
2017-11-11T09:50:34.464Z,88.51
2017-11-11T09:51:34.456Z,87.74
2017-11-11T09:52:34.452Z,88.03
2017-11-11T09:53:34.437Z,88.31
2017-11-11T09:54:34.425Z,88.41
2017-11-11T09:55:34.417Z,87.98
2017-11-11T09:56:34.412Z,88.08
2017-11-11T09:57:34.398Z,88.93
2017-11-11T09:58:34.396Z,88.65
2017-11-11T09:59:34.059Z,89.41
2017-11-11T10:00:34.060Z,89.13
2017-11-11T10:01:34.371Z,88.56
2017-11-11T10:02:34.354Z,88.51
2017-11-11T10:03:34.348Z,88.75
2017-11-11T10:04:34.336Z,89.22
2017-11-11T10:05:34.334Z,89.32
2017-11-11T10:06:33.995Z,89.22
2017-11-11T10:07:34.308Z,88.93
2017-11-11T10:08:34.305Z,89.51
2017-11-11T10:09:34.293Z,89.7
2017-11-11T10:10:34.286Z,89.7
2017-11-11T10:11:34.274Z,90.08
2017-11-11T10:12:34.273Z,90.08
2017-11-11T10:13:34.256Z,90.27
2017-11-11T10:14:34.252Z,90.27
2017-11-11T10:15:33.918Z,90.46
2017-11-11T10:16:34.230Z,91.22
2017-11-11T10:17:34.233Z,91.13
2017-11-11T10:18:34.259Z,91.41
2017-11-11T10:19:34.202Z,91.51
2017-11-11T10:20:34.222Z,91.41
2017-11-11T10:21:34.224Z,91.22
2017-11-11T10:22:34.210Z,91.22
2017-11-11T10:23:34.176Z,90.84
2017-11-11T10:24:34.154Z,90.84
2017-11-11T10:25:34.144Z,90.56
2017-11-11T10:26:34.140Z,90.27
2017-11-11T10:27:34.132Z,90.31
2017-11-11T10:28:33.793Z,90.41
2017-11-11T10:29:34.119Z,89.65
2017-11-11T10:30:34.101Z,89.26
2017-11-11T10:31:34.095Z,88.6
2017-11-11T10:32:34.084Z,88.6
2017-11-11T10:33:34.086Z,88.7
2017-11-11T10:34:34.069Z,88.98
2017-11-11T10:35:34.059Z,88.89
2017-11-11T10:36:34.051Z,87.93
2017-11-11T10:37:34.064Z,88.7
2017-11-11T10:38:34.028Z,88.7
2017-11-11T10:39:34.023Z,88.41
2017-11-11T10:40:34.013Z,87.65
2017-11-11T10:41:34.017Z,87.93
2017-11-11T10:42:34.013Z,87.74
2017-11-11T10:43:33.986Z,87.74
2017-11-11T10:44:33.978Z,87.93
2017-11-11T10:45:33.977Z,87.46
2017-11-11T10:46:33.964Z,87.55
2017-11-11T10:47:33.628Z,87.07
2017-11-11T10:48:33.951Z,87.46
2017-11-11T10:49:33.932Z,87.65
2017-11-11T10:50:33.938Z,88.22
2017-11-11T10:51:33.917Z,88.89
2017-11-11T10:52:33.584Z,88.51
2017-11-11T10:53:33.914Z,88.89
2017-11-11T10:54:33.895Z,88.7
2017-11-11T10:55:34.139Z,89.07
2017-11-11T10:56:33.920Z,90.08
2017-11-11T10:57:33.863Z,90.75
2017-11-11T10:58:33.869Z,91.13
2017-11-11T10:59:33.852Z,91.51
2017-11-11T11:00:33.843Z,91.31
2017-11-11T11:01:33.829Z,91.51
2017-11-11T11:02:33.823Z,91.31
2017-11-11T11:03:33.814Z,92.08
2017-11-11T11:04:33.799Z,91.89
2017-11-11T11:05:33.804Z,92.46
2017-11-11T11:06:33.809Z,92.46
2017-11-11T11:07:33.771Z,92.84
2017-11-11T11:08:33.770Z,92.94
2017-11-11T11:09:33.756Z,92.84
2017-11-11T11:10:33.747Z,92.84
2017-11-11T11:11:33.737Z,93.03
2017-11-11T11:12:33.736Z,92.55
2017-11-11T11:13:33.717Z,92.55
2017-11-11T11:14:33.708Z,92.18
2017-11-11T11:15:33.700Z,92.27
2017-11-11T11:16:33.705Z,92.36
2017-11-11T11:17:33.692Z,92.18
2017-11-11T11:18:33.686Z,92.08
2017-11-11T11:19:33.669Z,91.99
2017-11-11T11:20:33.656Z,91.99
2017-11-11T11:21:33.319Z,91.22
2017-11-11T11:22:33.647Z,91.51
2017-11-11T11:23:33.637Z,91.22
2017-11-11T11:24:33.617Z,91.7
2017-11-11T11:25:33.612Z,91.31
2017-11-11T11:26:33.603Z,91.41
2017-11-11T11:27:33.262Z,91.03
2017-11-11T11:28:33.580Z,90.84
2017-11-11T11:29:33.570Z,90.56
2017-11-11T11:30:33.560Z,90.22
2017-11-11T11:31:33.558Z,90.7
2017-11-11T11:32:33.544Z,90.22
2017-11-11T11:33:33.530Z,90.03
2017-11-11T11:34:33.523Z,89.36
2017-11-11T11:35:33.524Z,88.93
2017-11-11T11:36:33.511Z,88.45
2017-11-11T11:37:33.499Z,87.98
2017-11-11T11:38:33.489Z,87.98
2017-11-11T11:39:33.490Z,87.79
2017-11-11T11:40:33.471Z,87.31
2017-11-11T11:41:33.472Z,87.4
2017-11-11T11:42:33.456Z,87.31
2017-11-11T11:43:33.455Z,87.69
2017-11-11T11:44:33.437Z,87.79
2017-11-11T11:45:33.429Z,87.84
2017-11-11T11:46:33.432Z,88.03
2017-11-11T11:47:33.414Z,87.55
2017-11-11T11:48:33.410Z,87.17
2017-11-11T11:49:33.393Z,87.27
2017-11-11T11:50:33.393Z,87.17
2017-11-11T11:51:33.378Z,87.93
2017-11-11T11:52:33.378Z,88.03
2017-11-11T11:53:33.365Z,87.93
2017-11-11T11:54:33.363Z,88.31
2017-11-11T11:55:33.342Z,88.22
2017-11-11T11:56:33.331Z,88.12
2017-11-11T11:57:33.000Z,88.22
2017-11-11T11:58:33.322Z,88.41
2017-11-11T11:59:33.342Z,88.12
2017-11-11T12:00:33.313Z,88.41
2017-11-11T12:01:33.294Z,88.7
2017-11-11T12:02:32.959Z,88.22
2017-11-11T12:03:33.275Z,88.07
2017-11-11T12:04:33.263Z,87.88
2017-11-11T12:05:33.257Z,87.88
2017-11-11T12:06:33.251Z,87.31
2017-11-11T12:07:33.239Z,87.21
2017-11-11T12:08:33.236Z,86.26
2017-11-11T12:09:33.227Z,86.45
2017-11-11T12:10:33.216Z,86.74
2017-11-11T12:11:33.206Z,87.4
2017-11-11T12:12:33.197Z,87.4
2017-11-11T12:13:32.864Z,87.21
2017-11-11T12:14:33.182Z,87.21
2017-11-11T12:15:33.171Z,87.31
2017-11-11T12:16:33.169Z,87.69
2017-11-11T12:17:33.182Z,87.69
2017-11-11T12:18:33.144Z,88.31
2017-11-11T12:19:33.142Z,88.74
2017-11-11T12:20:33.139Z,88.51
2017-11-11T12:21:33.138Z,88.7
2017-11-11T12:22:33.133Z,88.6
2017-11-11T12:23:32.787Z,88.26
2017-11-11T12:24:33.109Z,88.17
2017-11-11T12:25:32.779Z,88.26
2017-11-11T12:26:33.086Z,88.55
2017-11-11T12:27:33.073Z,87.88
2017-11-11T12:28:33.063Z,87.21
2017-11-11T12:29:33.055Z,87.02
2017-11-11T12:30:33.046Z,87.16
2017-11-11T12:31:33.037Z,86.49
2017-11-11T12:32:33.033Z,86.3
2017-11-11T12:33:33.023Z,86.98
2017-11-11T12:34:33.024Z,86.78
2017-11-11T12:35:33.003Z,85.93
2017-11-11T12:36:32.997Z,86.11
2017-11-11T12:37:32.989Z,85.73
2017-11-11T12:38:32.981Z,86.21
2017-11-11T12:39:32.977Z,85.93
2017-11-11T12:40:32.976Z,85.73
2017-11-11T12:41:32.960Z,85.64
2017-11-11T12:42:32.950Z,85.45
2017-11-11T12:43:32.944Z,85.35
2017-11-11T12:44:32.935Z,85.93
2017-11-11T12:45:32.930Z,85.25
2017-11-11T12:46:32.916Z,86.21
2017-11-11T12:47:32.909Z,85.54
2017-11-11T12:48:32.899Z,85.88
2017-11-11T12:49:32.896Z,86.55
2017-11-11T12:50:32.884Z,86.65
2017-11-11T12:51:32.553Z,86.36
2017-11-11T12:52:32.867Z,86.83
2017-11-11T12:53:32.873Z,87.02
2017-11-11T12:54:32.859Z,86.65
2017-11-11T12:55:32.847Z,87.4